This is the latest recevied weather packets stored in our database for station/object K7FRY. If no packets are shown the sender has not sent any weather packets the latest 1 day(s).
| Time | Temp. | Humidity | Pressure | Rain* | Wind** | Luminosity | Snow |
|---|---|---|---|---|---|---|---|
| 1778042296 | 16.67° C | 50% | 1014.8 hPa | 0 mm | - | 0 W/m² | - |
| 1778041994 | 16.67° C | 50% | 1014.8 hPa | 0 mm | - | 0 W/m² | - |
| 1778040483 | 17.78° C | 45% | 1014.2 hPa | 0 mm | - | 0 W/m² | - |
| 1778040180 | 17.78° C | 44% | 1014.2 hPa | 0 mm | - | 0 W/m² | - |
| 1778039876 | 17.78° C | 44% | 1014 hPa | 0 mm | - | 0 W/m² | - |
| 1778038968 | 17.22° C | 48% | 1013.9 hPa | 0 mm | - | 0 W/m² | - |
| 1778038362 | 17.22° C | 48% | 1013.9 hPa | 0 mm | - | 0 W/m² | - |
| 1778037452 | 17.78° C | 47% | 1013.7 hPa | 0 mm | - | 0 W/m² | - |
| 1778037150 | 17.78° C | 46% | 1013.6 hPa | 0 mm | - | 0 W/m² | - |
| 1778036848 | 17.78° C | 48% | 1013.3 hPa | 0 mm | - | 0 W/m² | - |
| 1778036545 | 17.78° C | 47% | 1013.4 hPa | 0 mm | - | 0 W/m² | - |
| 1778036242 | 18.33° C | 47% | 1013.3 hPa | 0 mm | - | 0 W/m² | - |
| 1778035938 | 18.33° C | 45% | 1013.1 hPa | 0 mm | - | 0 W/m² | - |
| 1778035635 | 18.33° C | 46% | 1013.3 hPa | 0 mm | - | 0 W/m² | - |
| 1778035028 | 18.89° C | 45% | 1013.2 hPa | 0 mm | - | 0 W/m² | - |
| 1778034422 | 18.89° C | 44% | 1012.7 hPa | 0 mm | - | 0 W/m² | - |
| 1778034120 | 18.89° C | 44% | 1012.7 hPa | 0 mm | - | 0 W/m² | - |
| 1778033514 | 20° C | 42% | 1012.4 hPa | 0 mm | - | 0 W/m² | - |
| 1778033211 | 20.56° C | 40% | 1012 hPa | 0 mm | - | 2 W/m² | - |
| 1778032606 | 20.56° C | 37% | 1012 hPa | 0 mm | - | 6 W/m² | - |
| 1778032304 | 20.56° C | 38% | 1011.8 hPa | 0 mm | - | 10 W/m² | - |
| 1778032002 | 20.56° C | 39% | 1011.8 hPa | 0 mm | - | 13 W/m² | - |
| 1778031696 | 20.56° C | 39% | 1011.6 hPa | 0 mm | - | 16 W/m² | - |
| 1778031395 | 20.56° C | 40% | 1011.5 hPa | 0 mm | - | 20 W/m² | - |
| 1778031092 | 20.56° C | 41% | 1011.6 hPa | 0 mm | - | 24 W/m² | - |
* Rain latest hour (hover to see other rain measurements)
** Current wind speed in m/s (hover to see current wind gust speed)